Latest Weather Observations for Omeo

IDV60801

Issued at 11:02 pm EDT Thursday 18 December 2014 (issued every 30 minutes, with the page automatically refreshed every 10 minutes)

About weather observations | Map of weather stations | Latest weather observations for VIC | Other Formats
Station Details ID: 083090 Name: OMEO Lat: -37.10 Lon: 147.60 Height: 689.8 m
Data from the previous 72 hours. | See also: Recent months at Omeo
Date/Time
EDT
Temp
°C
App
Temp
°C
Dew
Point
Rel
Hum
%
Delta-T
°C
Wind Press
QNH
hPa
Press
MSL
hPa
Rain
since 9 am
mm
Dir
 
Spd
km/h
Gust
km/h
Spd
kts
Gust
kts
18/11:00pm 10.0 7.0 7.9 87 1.1 SSE 13 19 7 10 1011.6 1009.5 0.0
18/10:30pm 10.5 8.0 8.1 85 1.2 SSE 11 15 6 8 1011.4 1009.3 0.0
18/10:00pm 11.6 9.6 8.8 83 1.4 SSE 9 13 5 7 1011.5 1009.4 0.0
18/09:30pm 11.6 8.1 8.6 82 1.5 SE 17 30 9 16 1010.8 1008.7 0.0
18/09:00pm 12.5 8.0 8.6 77 2.0 SE 22 35 12 19 1010.2 1008.1 0.0
18/08:30pm 13.7 10.7 9.2 74 2.4 SE 15 26 8 14 1009.6 1007.5 0.0
18/08:00pm 14.1 10.1 8.9 71 2.7 SE 20 32 11 17 1009.0 1006.8 0.0
18/07:30pm 15.4 11.4 8.4 63 3.7 SE 19 32 10 17 1008.2 1006.1 0.0
18/07:00pm 19.6 15.9 2.5 32 8.2 WNW 11 17 6 9 1007.3 1005.1 0.0
18/06:30pm 20.2 14.1 2.5 31 8.5 NW 24 37 13 20 1006.8 1004.7 0.0
18/06:00pm 21.2 15.6 1.5 27 9.4 NW 20 39 11 21 1006.4 1004.2 0.0
18/05:30pm 21.6 15.6 0.8 25 9.8 WNW 22 43 12 23 1005.9 1003.7 0.0
18/05:00pm 22.6 17.0 3.7 29 9.5 NW 22 33 12 18 1005.9 1003.7 0.0
18/04:30pm 21.0 14.9 2.8 30 8.9 NW 24 32 13 17 1006.4 1004.2 0.0
18/04:00pm 21.7 16.2 3.9 31 8.9 NW 22 35 12 19 1006.0 1003.8 0.0
18/03:30pm 22.5 17.4 4.1 30 9.3 NNW 20 32 11 17 1006.3 1004.1 0.0
18/03:00pm 22.0 16.0 3.6 30 9.2 NW 24 35 13 19 1006.5 1004.3 0.0
18/02:30pm 21.8 16.1 3.0 29 9.3 NW 22 37 12 20 1006.8 1004.7 0.0
18/02:01pm 22.9 15.7 2.9 27 9.9 NW 30 50 16 27 1006.6 1004.4 0.0
18/02:00pm 23.3 16.6 3.8 28 9.9 NW 28 43 15 23 1006.7 1004.5 0.0
18/01:30pm 23.2 17.2 6.9 35 8.7 NNW 28 52 15 28 1006.4 1004.2 0.0
18/01:25pm 22.4 15.4 2.0 26 9.9 NNW 28 52 15 28 1006.3 1004.1 0.0
18/01:00pm 22.2 15.1 3.8 30 9.3 NW 30 43 16 23 1006.5 1004.3 0.0
18/12:30pm 22.4 17.3 4.0 30 9.3 NW 20 30 11 16 1006.6 1004.4 0.0
18/12:00pm 22.3 16.9 4.4 31 9.1 NNW 22 37 12 20 1006.8 1004.7 0.0
18/11:30am 21.3 15.8 4.0 32 8.7 NW 22 35 12 19 1007.0 1004.9 0.0
18/11:00am 20.4 14.8 3.6 33 8.3 N 22 35 12 19 1007.0 1004.9 0.0
18/10:30am 19.5 14.7 5.6 40 7.1 N 20 32 11 17 1007.4 1005.2 0.0
18/10:00am 18.0 13.7 8.0 52 5.3 N 20 28 11 15 1007.8 1005.6 0.0
18/09:30am 15.3 11.4 8.5 64 3.6 N 19 28 10 15 1008.1 1006.0 0.0
18/09:00am 13.3 9.1 7.5 68 3.0 N 19 28 10 15 1008.4 1006.3 0.0
18/08:30am 10.8 7.0 8.9 88 1.0 N 19 24 10 13 1008.9 1006.7 0.0
18/08:00am 9.2 6.0 8.6 96 0.3 NNW 15 20 8 11 1008.9 1006.7 0.0
18/07:30am 8.2 4.8 7.8 97 0.2 N 15 20 8 11 1008.9 1006.7 0.0
18/07:00am 7.5 4.7 7.1 97 0.2 N 11 15 6 8 1008.8 1006.6 0.0
18/06:30am 7.2 5.1 6.8 97 0.2 NW 7 11 4 6 1008.6 1006.5 0.0
18/06:00am 6.7 4.7 6.3 97 0.2 W 6 9 3 5 1008.3 1006.2 0.0
18/05:30am 6.2 4.1 5.6 96 0.3 W 6 9 3 5 1008.1 1006.0 0.0
18/05:00am 7.0 4.1 6.4 96 0.3 N 11 15 6 8 1007.5 1005.3 0.0
18/04:30am 6.4 4.1 5.8 96 0.3 N 7 11 4 6 1007.6 1005.4 0.0
18/04:00am 5.5 3.6 4.8 95 0.3 ENE 4 7 2 4 1007.8 1005.6 0.0
18/03:30am 5.7 4.5 4.8 94 0.4 CALM 0 0 0 0 1007.7 1005.5 0.0
18/03:00am 6.4 5.4 5.4 93 0.5 CALM 0 0 0 0 1007.9 1005.7 0.0
18/02:30am 7.0 6.1 5.9 93 0.5 CALM 0 0 0 0 1008.2 1006.1 0.0
18/02:00am 7.3 6.4 5.9 91 0.7 CALM 0 0 0 0 1008.5 1006.4 0.0
18/01:30am 8.0 7.2 6.5 90 0.7 CALM 0 0 0 0 1008.8 1006.6 0.0
18/01:00am 8.9 7.4 7.0 88 0.9 S 4 7 2 4 1009.0 1006.8 0.0
18/12:30am 9.6 8.6 7.4 86 1.1 SSE 2 7 1 4 1009.3 1007.2 0.0
18/12:00am 10.2 8.4 7.8 85 1.2 SE 7 11 4 6 1009.5 1007.4 0.0
 
Date/Time
EDT
Temp
°C
App
Temp
°C
Dew
Point
Rel
Hum
%
Delta-T
°C
Wind Press
QNH
hPa
Press
MSL
hPa
Rain
since 9 am
mm
Dir
 
Spd
km/h
Gust
km/h
Spd
kts
Gust
kts
17/11:30pm 10.5 8.7 8.1 85 1.2 SSE 7 13 4 7 1009.9 1007.8 0.0
17/11:00pm 10.2 8.4 8.0 86 1.1 S 7 13 4 7 1010.2 1008.1 0.0
17/10:30pm 9.8 7.2 7.6 86 1.1 SSE 11 19 6 10 1010.4 1008.2 0.0
17/10:00pm 10.0 7.3 7.4 84 1.3 S 11 15 6 8 1010.6 1008.5 0.0
17/09:30pm 10.1 7.7 7.2 82 1.4 S 9 17 5 9 1010.5 1008.3 0.0
17/09:00pm 10.8 6.9 7.3 79 1.7 SE 17 28 9 15 1009.9 1007.8 0.0
17/08:30pm 11.5 7.1 7.4 76 2.1 SE 20 32 11 17 1009.7 1007.6 0.0
17/08:00pm 12.7 8.3 7.4 70 2.7 SE 20 33 11 18 1009.2 1007.0 0.0
17/07:30pm 13.7 8.2 7.5 66 3.2 SE 26 39 14 21 1008.5 1006.4 0.0
17/07:00pm 15.8 11.1 7.6 58 4.3 SE 22 35 12 19 1007.8 1005.6 0.0
17/06:30pm 18.4 14.4 8.1 51 5.5 SE 19 30 10 16 1007.3 1005.1 0.0
17/06:00pm 18.1 13.6 6.9 48 5.8 SE 20 30 11 16 1006.9 1004.8 0.0
17/05:30pm 19.4 15.0 7.5 46 6.3 SE 20 30 11 16 1006.8 1004.7 0.0
17/05:00pm 20.6 17.1 8.9 47 6.4 SE 17 26 9 14 1006.9 1004.8 0.0
17/04:30pm 20.4 16.6 7.4 43 6.9 SE 17 30 9 16 1007.1 1005.0 0.0
17/04:00pm 20.3 16.0 7.0 42 7.0 SE 19 28 10 15 1007.4 1005.2 0.0
17/03:30pm 20.2 16.5 7.9 45 6.6 ESE 17 26 9 14 1007.5 1005.3 0.0
17/03:00pm 19.9 16.4 8.9 49 6.0 ESE 17 28 9 15 1007.6 1005.4 0.0
17/02:30pm 19.9 17.1 8.6 48 6.1 SE 13 22 7 12 1007.7 1005.5 0.0
17/02:00pm 19.3 16.3 9.2 52 5.5 ESE 15 26 8 14 1008.0 1005.9 0.0
17/01:30pm 18.5 15.5 7.9 50 5.6 SE 13 20 7 11 1008.2 1006.1 0.0
17/01:00pm 18.2 14.5 6.4 46 6.1 ESE 15 26 8 14 1008.4 1006.3 0.0
17/12:30pm 18.1 14.5 6.6 47 5.9 ESE 15 22 8 12 1008.6 1006.5 0.0
17/12:00pm 17.5 13.9 5.1 44 6.2 SSE 13 19 7 10 1008.5 1006.4 0.0
17/11:30am 16.8 13.5 4.5 44 6.0 SE 11 19 6 10 1008.5 1006.4 0.0
17/11:00am 15.8 12.8 4.2 46 5.6 SE 9 17 5 9 1008.4 1006.3 0.0
17/10:30am 16.0 12.3 4.7 47 5.5 E 13 20 7 11 1008.1 1006.0 0.0
17/10:00am 14.9 11.4 3.7 47 5.3 SSE 11 19 6 10 1008.2 1006.1 0.0
17/09:30am 14.6 11.2 4.0 49 5.1 SE 11 20 6 11 1008.2 1006.1 0.0
17/09:00am 13.7 10.4 4.8 55 4.3 SE 11 19 6 10 1008.1 1006.0 0.0
17/08:30am 12.7 8.7 2.8 51 4.5 S 13 20 7 11 1007.9 1005.7 0.0
17/08:00am 11.3 7.7 2.9 56 3.8 S 11 20 6 11 1007.6 1005.4 0.0
17/07:30am 10.0 7.4 4.4 68 2.6 SSE 7 13 4 7 1007.0 1004.9 0.0
17/07:00am 7.4 5.5 3.1 74 1.9 SE 2 9 1 5 1006.7 1004.5 0.0
17/06:30am 6.2 4.6 2.3 76 1.7 CALM 0 0 0 0 1006.4 1004.2 0.0
17/06:00am 6.0 4.0 2.1 76 1.7 N 2 7 1 4 1006.0 1003.8 0.0
17/05:30am 6.4 4.0 2.1 74 1.8 NNW 4 9 2 5 1005.5 1003.4 0.0
17/05:00am 7.4 4.5 1.7 67 2.4 S 6 11 3 6 1005.0 1002.8 0.0
17/04:30am 8.0 4.2 1.8 65 2.7 SSE 11 17 6 9 1004.6 1002.4 0.0
17/04:00am 8.2 4.9 2.2 66 2.6 SSE 9 15 5 8 1004.4 1002.2 0.0
17/03:30am 9.6 6.3 4.8 72 2.2 SSE 11 22 6 12 1004.2 1001.9 0.0
17/03:00am 10.4 6.8 6.7 78 1.8 SSE 15 28 8 15 1004.0 1001.8 0.0
17/02:30am 10.3 7.7 7.7 84 1.3 SSE 11 19 6 10 1003.9 1001.7 0.0
17/02:00am 10.3 7.3 7.9 85 1.2 SSE 13 22 7 12 1003.5 1001.3 0.0
17/01:30am 10.4 7.5 8.2 86 1.1 SSE 13 24 7 13 1003.2 1001.0 0.0
17/01:00am 10.4 7.5 8.3 87 1.1 SE 13 20 7 11 1003.2 1001.0 0.0
17/12:30am 10.8 8.7 8.4 85 1.2 SSE 9 19 5 10 1003.0 1000.8 0.0
17/12:00am 11.5 9.2 8.9 84 1.4 SE 11 20 6 11 1002.9 1000.6 0.0
 
Date/Time
EDT
Temp
°C
App
Temp
°C
Dew
Point
Rel
Hum
%
Delta-T
°C
Wind Press
QNH
hPa
Press
MSL
hPa
Rain
since 9 am
mm
Dir
 
Spd
km/h
Gust
km/h
Spd
kts
Gust
kts
16/11:30pm 11.8 8.8 9.4 85 1.3 SSE 15 22 8 12 1002.7 1000.4 0.0
16/11:00pm 12.6 9.0 10.5 87 1.1 SSE 20 37 11 20 1002.1 999.9 0.0
16/10:30pm 13.2 9.6 10.7 85 1.4 SE 20 35 11 19 1001.4 999.1 0.0
16/10:00pm 14.0 9.8 11.0 82 1.7 SE 24 41 13 22 1000.8 998.6 0.0
16/09:30pm 17.3 13.8 8.7 57 4.6 SSE 17 30 9 16 1000.3 998.0 0.0
16/09:27pm 18.7 15.0 7.8 49 5.8 W 17 35 9 19 1000.2 997.9 0.0
16/09:10pm 24.0 18.5 0.4 21 11.2 WNW 19 44 10 24 999.7 997.4 0.0
16/09:00pm 23.6 19.1 0.0 21 11.2 WNW 13 20 7 11 999.6 997.3 0.0
16/08:30pm 24.2 18.6 -0.2 20 11.5 NW 19 30 10 16 999.0 996.7 0.0
16/08:01pm 24.7 17.2 0.9 21 11.5 NW 30 48 16 26 998.5 996.2 0.0
16/08:00pm 24.9 16.9 0.4 20 11.8 NW 32 48 17 26 998.4 996.1 0.0
16/07:44pm 24.8 17.6 1.0 21 11.5 NW 28 46 15 25 998.2 995.9 0.0
16/07:30pm 25.3 17.2 0.0 19 12.1 NW 32 46 17 25 998.0 995.7 0.0
16/07:04pm 25.8 18.7 1.2 20 12.1 NW 28 46 15 25 997.3 995.0 0.0
16/07:00pm 25.8 19.1 1.2 20 12.1 NW 26 44 14 24 997.3 995.0 0.0
16/06:30pm 26.6 16.8 2.5 21 12.1 NW 43 61 23 33 996.7 994.4 0.0
16/06:00pm 27.4 16.8 1.0 18 13.1 NW 46 76 25 41 996.3 994.0 0.0
16/05:30pm 27.8 20.2 2.8 20 12.8 NW 32 59 17 32 996.3 994.0 0.0
16/05:03pm 27.9 21.6 1.4 18 13.2 NW 24 50 13 27 996.8 994.5 0.0
16/05:00pm 28.7 22.6 2.8 19 13.4 WNW 24 44 13 24 996.9 994.6 0.0
16/04:30pm 28.1 22.1 0.8 17 13.5 NW 22 48 12 26 997.0 994.7 0.0
16/04:08pm 27.9 20.7 0.6 17 13.4 NW 28 46 15 25 997.2 994.9 0.0
16/04:00pm 27.9 20.9 -0.2 16 13.7 NNW 26 43 14 23 997.2 994.9 0.0
16/03:30pm 28.5 22.0 0.3 16 13.8 WNW 24 44 13 24 998.0 995.7 0.0
16/03:00pm 28.2 20.8 1.7 18 13.4 NW 30 59 16 32 998.1 995.8 0.0
16/02:54pm 27.9 19.4 0.6 17 13.4 NW 35 59 19 32 997.8 995.6 0.0
16/02:30pm 28.2 19.9 2.4 19 13.1 NW 35 50 19 27 997.8 995.6 0.0
16/02:00pm 28.2 21.3 4.5 22 12.6 WNW 30 43 16 23 997.3 995.0 0.0
16/01:30pm 28.3 20.9 3.9 21 12.7 NW 32 50 17 27 997.5 995.2 0.0
16/01:00pm 27.9 20.5 4.2 22 12.5 NW 32 56 17 30 997.4 995.1 0.0
16/12:59pm 27.8 20.4 4.2 22 12.3 NW 32 56 17 30 997.4 995.1 0.0
16/12:30pm 27.6 23.6 9.0 31 10.5 NNW 20 41 11 22 997.6 995.3 0.0
16/12:00pm 26.8 22.2 10.9 37 9.3 NNW 26 43 14 23 997.8 995.6 0.0
16/11:41am 26.0 20.8 10.2 37 9.1 N 28 48 15 26 997.7 995.4 0.0
16/11:30am 25.7 21.7 10.3 38 8.8 NNW 22 33 12 18 998.1 995.8 0.0
16/11:00am 25.8 22.1 14.0 48 7.2 NNW 26 50 14 27 998.3 996.0 0.0
16/10:46am 25.0 20.3 11.9 44 7.7 NNW 28 46 15 25 998.5 996.2 0.0
16/10:30am 24.1 19.2 12.4 48 6.9 N 30 46 16 25 998.6 996.3 0.0
16/10:00am 23.5 18.1 12.2 49 6.7 N 32 50 17 27 998.4 996.1 0.0
16/09:42am 23.0 17.3 11.7 49 6.6 N 33 52 18 28 998.5 996.2 0.0
16/09:30am 22.8 17.8 12.1 51 6.2 N 30 44 16 24 998.7 996.4 0.0
16/09:02am 21.5 16.4 11.8 54 5.6 N 30 50 16 27 999.1 996.9 0.0
16/09:00am 21.6 16.7 12.5 56 5.4 N 30 46 16 25 999.2 997.0 1.0
16/08:53am 21.2 16.5 12.1 56 5.3 N 28 46 15 25 999.3 997.1 1.0
16/08:30am 20.5 17.4 12.2 59 4.8 N 20 35 11 19 999.7 997.4 1.0
16/08:00am 18.5 14.9 12.9 70 3.3 N 24 32 13 17 1000.2 997.9 1.0
16/07:30am 17.2 14.5 12.9 76 2.5 NNW 19 28 10 15 1000.2 997.9 1.0
16/07:00am 16.1 12.8 12.7 80 2.0 NNW 22 32 12 17 1000.2 997.9 1.0
16/06:30am 15.9 12.5 12.5 80 1.9 NNW 22 35 12 19 1000.1 997.8 1.0
16/06:10am 16.1 12.5 11.9 76 2.4 N 22 32 12 17 1000.0 997.7 1.0
16/06:00am 16.5 13.1 12.5 77 2.3 NNW 22 32 12 17 1002.1 999.9 1.0
16/05:30am 16.2 13.5 11.8 75 2.5 NNW 17 26 9 14 1001.6 999.3 0.6
16/05:00am 16.9 14.6 11.6 71 3.0 NNW 15 26 8 14 1002.9 1000.6 0.6
16/04:30am 16.5 14.4 11.0 70 3.1 NNW 13 17 7 9 1001.9 999.7 0.6
16/04:00am 16.7 13.9 11.4 71 3.0 NNW 17 24 9 13 1002.2 1000.0 0.6
16/03:30am 17.2 13.8 11.2 68 3.4 NNW 20 30 11 16 1002.9 1000.6 0.6
16/03:00am 17.2 14.0 11.2 68 3.4 NNW 19 30 10 16 1003.1 1000.9 0.6
16/02:30am 17.2 13.9 11.7 70 3.1 N 20 28 11 15 1004.0 1001.8 0.6
16/02:00am 17.9 14.8 11.7 67 3.5 N 19 28 10 15 1004.6 1002.4 0.6
16/01:30am 17.2 14.9 11.7 70 3.1 N 15 22 8 12 1005.4 1003.2 0.6
16/01:00am 17.5 16.4 11.8 69 3.2 NW 9 15 5 8 1006.8 1004.7 0.2
16/12:30am 17.8 15.4 11.4 66 3.6 N 15 20 8 11 1006.2 1004.0 0.2
16/12:00am 17.5 16.2 12.4 72 2.9 NNE 11 19 6 10 1006.9 1004.8 0.2
 
Date/Time
EDT
Temp
°C
App
Temp
°C
Dew
Point
Rel
Hum
%
Delta-T
°C
Wind Press
QNH
hPa
Press
MSL
hPa
Rain
since 9 am
mm
Dir
 
Spd
km/h
Gust
km/h
Spd
kts
Gust
kts
15/11:30pm 18.0 17.0 12.2 69 3.3 ESE 9 13 5 7 1008.3 1006.2 0.2

Other Formats:

Comma delimited format used in spreadsheet applications
http://www.bom.gov.au/fwo/IDV60801/IDV60801.94908.axf

JavaScript Object Notation format (JSON) in row-major order
http://www.bom.gov.au/fwo/IDV60801/IDV60801.94908.json